createdAt,value
2023-01-04T00:01:05.153Z,5.80
2023-01-04T00:03:32.388Z,5.80
2023-01-04T00:06:00.548Z,5.80
2023-01-04T00:08:28.177Z,5.90
2023-01-04T00:11:02.789Z,5.90
2023-01-04T00:13:33.001Z,5.90
2023-01-04T00:16:07.948Z,5.90
2023-01-04T00:18:36.697Z,5.90
2023-01-04T00:21:23.875Z,5.90
2023-01-04T00:23:52.882Z,6.00
2023-01-04T00:26:24.719Z,6.00
2023-01-04T00:28:55.454Z,6.00
2023-01-04T00:31:23.687Z,6.00
2023-01-04T00:33:53.338Z,6.00
2023-01-04T00:36:20.012Z,6.00
2023-01-04T00:38:46.901Z,6.10
2023-01-04T00:41:49.250Z,6.00
2023-01-04T00:44:03.233Z,6.10
2023-01-04T00:46:31.534Z,6.10
2023-01-04T00:49:00.648Z,6.10
2023-01-04T00:51:28.708Z,6.10
2023-01-04T00:53:55.880Z,6.10
2023-01-04T00:56:22.676Z,6.10
2023-01-04T00:58:49.597Z,6.10
2023-01-04T01:01:16.447Z,6.10
2023-01-04T01:03:44.479Z,6.10
2023-01-04T01:06:12.442Z,6.10
2023-01-04T01:08:39.307Z,6.10
2023-01-04T01:11:08.876Z,6.10
2023-01-04T01:13:36.898Z,6.10
2023-01-04T01:16:09.481Z,6.10
2023-01-04T01:18:37.944Z,6.10
2023-01-04T01:21:06.196Z,6.10
2023-01-04T01:23:32.997Z,6.10
2023-01-04T01:26:01.962Z,6.10
2023-01-04T01:28:29.865Z,6.00
2023-01-04T01:31:02.395Z,6.00
2023-01-04T01:33:34.094Z,6.00
2023-01-04T01:36:02.054Z,6.00
2023-01-04T01:38:28.782Z,6.00
2023-01-04T01:40:55.620Z,6.00
2023-01-04T01:43:24.406Z,6.00
2023-01-04T01:45:55.937Z,6.00
2023-01-04T01:48:27.347Z,6.00
2023-01-04T01:50:57.502Z,6.00
2023-01-04T01:53:25.418Z,6.10
2023-01-04T01:55:52.773Z,6.10
2023-01-04T01:58:24.485Z,6.10
2023-01-04T02:00:51.214Z,6.10
2023-01-04T02:03:22.727Z,6.10
2023-01-04T02:05:54.100Z,6.10
2023-01-04T02:08:22.919Z,6.10
2023-01-04T02:10:49.895Z,6.10
2023-01-04T02:13:19.928Z,6.10
2023-01-04T02:16:11.982Z,6.10
2023-01-04T02:18:51.477Z,6.10
2023-01-04T02:21:29.164Z,6.20
2023-01-04T02:24:31.680Z,6.20
2023-01-04T02:27:29.253Z,6.20
2023-01-04T02:30:33.696Z,6.20
2023-01-04T02:33:08.662Z,6.20
2023-01-04T02:35:50.506Z,6.20
2023-01-04T02:38:45.065Z,6.10
2023-01-04T02:41:47.433Z,6.20
2023-01-04T02:44:37.288Z,6.20
2023-01-04T02:47:10.074Z,6.30
2023-01-04T02:49:59.202Z,6.30
2023-01-04T02:52:30.978Z,6.30
2023-01-04T02:54:58.261Z,6.30
2023-01-04T02:57:37.067Z,6.40
2023-01-04T03:00:16.197Z,6.40
2023-01-04T03:03:26.867Z,6.40
2023-01-04T03:06:17.156Z,6.40
2023-01-04T03:09:02.713Z,6.40
2023-01-04T03:11:54.688Z,6.40
2023-01-04T03:14:31.680Z,6.40
2023-01-04T03:17:04.487Z,6.40
2023-01-04T03:19:49.814Z,6.40
2023-01-04T03:22:36.532Z,6.40
2023-01-04T03:25:23.328Z,6.40
2023-01-04T03:28:11.181Z,6.40
2023-01-04T03:31:04.689Z,6.50
2023-01-04T03:33:50.544Z,6.50
2023-01-04T03:36:28.718Z,6.50
2023-01-04T03:39:16.547Z,6.50
2023-01-04T03:42:12.482Z,6.40
2023-01-04T03:45:10.002Z,6.40
2023-01-04T03:48:27.205Z,6.40
2023-01-04T03:51:19.819Z,6.40
2023-01-04T03:54:24.496Z,6.40
2023-01-04T03:56:52.343Z,6.40
2023-01-04T03:59:19.681Z,6.50
2023-01-04T04:01:46.661Z,6.40
2023-01-04T04:04:32.150Z,6.40
2023-01-04T04:07:17.639Z,6.40
2023-01-04T04:09:44.340Z,6.50
2023-01-04T04:12:11.062Z,6.50
2023-01-04T04:14:37.828Z,6.50
2023-01-04T04:17:04.548Z,6.50
2023-01-04T04:19:31.251Z,6.50
2023-01-04T04:21:57.996Z,6.50
2023-01-04T04:24:26.642Z,6.50
2023-01-04T04:26:54.932Z,6.50
2023-01-04T04:29:33.947Z,6.50
2023-01-04T04:32:11.269Z,6.50
2023-01-04T04:34:42.751Z,6.50
2023-01-04T04:37:22.388Z,6.50
2023-01-04T04:39:56.463Z,6.50
2023-01-04T04:42:23.245Z,6.50
2023-01-04T04:45:08.895Z,6.50
2023-01-04T04:47:38.985Z,6.50
2023-01-04T04:50:14.831Z,6.50
2023-01-04T04:52:41.716Z,6.50
2023-01-04T04:55:19.115Z,6.50
2023-01-04T04:57:51.484Z,6.50
2023-01-04T05:00:18.347Z,6.50
2023-01-04T05:02:45.320Z,6.50
2023-01-04T05:05:12.690Z,6.50
2023-01-04T05:07:41.813Z,6.50
2023-01-04T05:10:10.376Z,6.50
2023-01-04T05:13:10.086Z,6.50
2023-01-04T05:15:40.209Z,6.50
2023-01-04T05:18:08.063Z,6.60
2023-01-04T05:20:34.894Z,6.60
2023-01-04T05:23:09.975Z,6.60
2023-01-04T05:25:36.739Z,6.60
2023-01-04T05:28:03.568Z,6.60
2023-01-04T05:30:48.924Z,6.60
2023-01-04T05:33:15.827Z,6.60
2023-01-04T05:35:45.901Z,6.60
2023-01-04T05:38:13.164Z,6.60
2023-01-04T05:40:39.928Z,6.60
2023-01-04T05:43:06.858Z,6.60
2023-01-04T05:45:33.952Z,6.60
2023-01-04T05:48:00.794Z,6.60
2023-01-04T05:50:27.623Z,6.60
2023-01-04T05:52:54.362Z,6.60
2023-01-04T05:55:21.175Z,6.60
2023-01-04T05:57:48.052Z,6.60
2023-01-04T06:00:15.309Z,6.60
2023-01-04T06:02:43.557Z,6.70
2023-01-04T06:05:10.989Z,6.70
2023-01-04T06:07:39.023Z,6.70
2023-01-04T06:10:10.264Z,6.70
2023-01-04T06:12:37.426Z,6.70
2023-01-04T06:15:04.950Z,6.70
2023-01-04T06:17:32.174Z,6.70
2023-01-04T06:19:58.950Z,6.70
2023-01-04T06:22:27.083Z,6.80
2023-01-04T06:24:53.898Z,6.80
2023-01-04T06:27:20.871Z,6.80
2023-01-04T06:29:47.613Z,6.80
2023-01-04T06:32:14.522Z,6.80
2023-01-04T06:34:41.228Z,6.80
2023-01-04T06:37:08.007Z,6.90
2023-01-04T06:39:34.753Z,6.90
2023-01-04T06:42:06.276Z,6.90
2023-01-04T06:44:34.079Z,6.90
2023-01-04T06:47:00.846Z,6.90
2023-01-04T06:49:27.595Z,6.90
2023-01-04T06:51:54.399Z,6.90
2023-01-04T06:54:21.159Z,6.90
2023-01-04T06:56:47.923Z,7.00
2023-01-04T06:59:14.701Z,7.00
2023-01-04T07:01:41.623Z,7.00
2023-01-04T07:04:08.752Z,7.00
2023-01-04T07:06:36.479Z,7.10
2023-01-04T07:09:03.324Z,7.10
2023-01-04T07:11:30.081Z,7.10
2023-01-04T07:13:56.848Z,7.10
2023-01-04T07:16:26.633Z,7.10
2023-01-04T07:18:53.445Z,7.20
2023-01-04T07:21:20.190Z,7.20
2023-01-04T07:23:47.662Z,7.20
2023-01-04T07:26:14.445Z,7.20
2023-01-04T07:29:02.290Z,7.20
2023-01-04T07:31:29.176Z,7.20
2023-01-04T07:33:55.989Z,7.30
2023-01-04T07:36:22.698Z,7.30
2023-01-04T07:38:49.459Z,7.30
2023-01-04T07:41:16.235Z,7.30
2023-01-04T07:43:43.011Z,7.40
2023-01-04T07:46:09.779Z,7.40
2023-01-04T07:48:36.570Z,7.40
2023-01-04T07:51:03.362Z,7.50
2023-01-04T07:53:33.011Z,7.50
2023-01-04T07:56:00.185Z,7.50
2023-01-04T07:58:31.039Z,7.50
2023-01-04T08:01:06.144Z,7.60
2023-01-04T08:03:32.941Z,7.60
2023-01-04T08:06:03.771Z,7.60
2023-01-04T08:08:30.529Z,7.70
2023-01-04T08:11:01.606Z,7.70
2023-01-04T08:13:28.454Z,7.80
2023-01-04T08:15:55.867Z,7.80
2023-01-04T08:18:23.085Z,7.90
2023-01-04T08:20:54.823Z,7.90
2023-01-04T08:23:24.974Z,8.00
2023-01-04T08:25:51.669Z,8.00
2023-01-04T08:28:18.498Z,8.00
2023-01-04T08:30:45.270Z,8.10
2023-01-04T08:33:15.767Z,8.20
2023-01-04T08:35:42.519Z,8.20
2023-01-04T08:38:47.188Z,8.20
2023-01-04T08:40:59.561Z,8.30
2023-01-04T08:43:28.611Z,8.30
2023-01-04T08:45:55.398Z,8.40
2023-01-04T08:48:24.680Z,8.40
2023-01-04T08:50:51.743Z,8.50
2023-01-04T08:53:18.710Z,8.50
2023-01-04T08:55:52.693Z,8.60
2023-01-04T08:58:19.949Z,8.60
2023-01-04T09:00:47.008Z,8.60
2023-01-04T09:03:13.833Z,8.70
2023-01-04T09:05:40.919Z,8.70
2023-01-04T09:08:08.316Z,8.80
2023-01-04T09:10:38.455Z,8.80
2023-01-04T09:13:05.747Z,8.90
2023-01-04T09:15:33.612Z,8.90
2023-01-04T09:18:30.829Z,8.90
2023-01-04T09:20:47.095Z,9.00
2023-01-04T09:23:13.806Z,9.00
2023-01-04T09:25:40.488Z,9.10
2023-01-04T09:28:07.201Z,9.10
2023-01-04T09:30:33.981Z,9.10
2023-01-04T09:33:00.701Z,9.20
2023-01-04T09:35:27.428Z,9.20
2023-01-04T09:37:55.270Z,9.20
2023-01-04T09:40:27.427Z,9.30
2023-01-04T09:43:20.394Z,9.30
2023-01-04T09:45:41.422Z,9.30
2023-01-04T09:48:13.958Z,9.40
2023-01-04T09:50:48.435Z,9.40
2023-01-04T09:53:26.219Z,9.50
2023-01-04T09:55:55.837Z,9.50
2023-01-04T09:58:33.038Z,9.50
2023-01-04T10:01:22.760Z,9.50
2023-01-04T10:04:00.005Z,9.60
2023-01-04T10:06:27.003Z,9.60
2023-01-04T10:09:02.906Z,9.60
2023-01-04T10:11:52.845Z,9.60
2023-01-04T10:14:52.419Z,9.70
2023-01-04T10:17:35.537Z,9.70
2023-01-04T10:23:44.363Z,9.80
2023-01-04T10:26:13.088Z,9.80
2023-01-04T10:28:48.953Z,9.80
2023-01-04T10:31:39.962Z,9.80
2023-01-04T10:34:40.338Z,9.80
2023-01-04T10:37:14.382Z,9.90
2023-01-04T10:39:41.797Z,9.90
2023-01-04T10:42:34.902Z,10.00
2023-01-04T10:45:13.467Z,10.00
2023-01-04T10:48:20.876Z,10.00
2023-01-04T10:51:09.442Z,10.00
2023-01-04T10:54:02.009Z,10.10
2023-01-04T10:56:54.883Z,10.10
2023-01-04T10:59:36.515Z,10.10
2023-01-04T11:02:45.294Z,10.10
2023-01-04T11:05:25.637Z,10.10
2023-01-04T11:07:59.730Z,10.10
2023-01-04T11:10:31.632Z,10.20
2023-01-04T11:12:58.510Z,10.20
2023-01-04T11:15:25.201Z,10.30
2023-01-04T11:17:52.020Z,10.30
2023-01-04T11:20:20.815Z,10.30
2023-01-04T11:23:15.437Z,10.30
2023-01-04T11:25:51.981Z,10.40
2023-01-04T11:28:53.739Z,10.40
2023-01-04T11:31:34.427Z,10.40
2023-01-04T11:34:02.755Z,10.40
2023-01-04T11:36:37.163Z,10.40
2023-01-04T11:39:19.067Z,10.40
2023-01-04T11:42:03.322Z,10.40
2023-01-04T11:44:35.434Z,10.40
2023-01-04T11:47:19.901Z,10.50
2023-01-04T11:49:47.269Z,10.50
2023-01-04T11:52:35.536Z,10.60
2023-01-04T11:55:25.349Z,10.60
2023-01-04T11:58:15.618Z,10.60
2023-01-04T12:00:54.759Z,10.70
2023-01-04T12:03:32.545Z,10.70
2023-01-04T12:05:59.499Z,10.70
2023-01-04T12:08:26.134Z,10.70
2023-01-04T12:10:52.860Z,10.70
2023-01-04T12:13:19.584Z,10.70
2023-01-04T12:16:10.472Z,10.70
2023-01-04T12:18:43.260Z,10.70
2023-01-04T12:21:20.140Z,10.70
2023-01-04T12:23:47.663Z,10.70
2023-01-04T12:26:20.823Z,10.70
2023-01-04T12:29:12.066Z,10.70
2023-01-04T12:31:38.869Z,10.70
2023-01-04T12:34:31.548Z,10.70
2023-01-04T12:37:04.920Z,10.80
2023-01-04T12:39:46.990Z,10.80
2023-01-04T12:42:21.449Z,10.80
2023-01-04T12:44:51.637Z,10.90
2023-01-04T12:47:36.875Z,10.90
2023-01-04T12:50:12.793Z,10.80
2023-01-04T12:53:28.269Z,10.80
2023-01-04T12:55:39.123Z,10.80
2023-01-04T12:58:49.710Z,10.80
2023-01-04T13:01:27.202Z,10.80
2023-01-04T13:04:02.435Z,10.80
2023-01-04T13:06:34.168Z,10.80
2023-01-04T13:09:01.412Z,10.80
2023-01-04T13:11:47.832Z,10.80
2023-01-04T13:14:42.108Z,10.80
2023-01-04T13:17:22.673Z,10.90
2023-01-04T13:19:49.552Z,10.90
2023-01-04T13:22:28.952Z,10.90
2023-01-04T13:24:58.139Z,10.90
2023-01-04T13:27:25.224Z,10.90
2023-01-04T13:29:52.456Z,10.90
2023-01-04T13:32:30.593Z,10.90
2023-01-04T13:35:15.007Z,11.00
2023-01-04T13:37:46.904Z,11.00
2023-01-04T13:40:23.374Z,11.00
2023-01-04T13:43:22.890Z,11.00
2023-01-04T13:46:11.162Z,11.00
2023-01-04T13:48:40.561Z,11.00
2023-01-04T13:51:36.296Z,11.00
2023-01-04T13:54:20.513Z,11.00
2023-01-04T13:56:55.001Z,11.00
2023-01-04T13:59:22.369Z,11.00
2023-01-04T14:01:49.651Z,11.00
2023-01-04T14:04:25.175Z,11.00
2023-01-04T14:06:52.957Z,11.00
2023-01-04T14:09:25.251Z,11.00
2023-01-04T14:12:08.592Z,11.00
2023-01-04T14:14:47.003Z,10.90
2023-01-04T14:17:34.427Z,10.90
2023-01-04T14:20:13.273Z,10.90
2023-01-04T14:22:46.014Z,10.90
2023-01-04T14:25:34.007Z,10.90
2023-01-04T14:28:19.250Z,10.90
2023-01-04T14:30:54.859Z,10.90
2023-01-04T14:33:29.907Z,10.90
2023-01-04T14:36:06.955Z,10.80
2023-01-04T14:38:37.520Z,10.80
2023-01-04T14:41:34.722Z,10.80
2023-01-04T14:44:01.401Z,10.80
2023-01-04T14:46:30.176Z,10.80
2023-01-04T14:48:57.307Z,10.80
2023-01-04T14:51:32.473Z,10.80
2023-01-04T14:53:59.166Z,10.80
2023-01-04T14:56:25.965Z,10.80
2023-01-04T14:58:52.670Z,10.70
2023-01-04T15:01:19.416Z,10.70
2023-01-04T15:03:46.223Z,10.70
2023-01-04T15:06:12.972Z,10.70
2023-01-04T15:08:39.715Z,10.70
2023-01-04T15:11:06.446Z,10.70
2023-01-04T15:13:39.617Z,10.70
2023-01-04T15:16:09.888Z,10.70
2023-01-04T15:18:36.663Z,10.70
2023-01-04T15:21:03.985Z,10.60
2023-01-04T15:23:30.772Z,10.50
2023-01-04T15:25:57.560Z,10.50
2023-01-04T15:28:26.274Z,10.40
2023-01-04T15:30:53.109Z,10.40
2023-01-04T15:33:19.934Z,10.30
2023-01-04T15:35:47.488Z,10.30
2023-01-04T15:38:18.418Z,10.30
2023-01-04T15:40:45.331Z,10.30
2023-01-04T15:43:12.040Z,10.30
2023-01-04T15:45:39.574Z,10.30
2023-01-04T15:48:08.318Z,10.30
2023-01-04T15:50:37.229Z,10.30
2023-01-04T15:53:05.092Z,10.30
2023-01-04T15:55:36.239Z,10.30
2023-01-04T15:58:04.420Z,10.30
2023-01-04T16:00:32.003Z,10.30
2023-01-04T16:02:58.801Z,10.30
2023-01-04T16:05:25.587Z,10.30
2023-01-04T16:07:52.277Z,10.30
2023-01-04T16:10:19.110Z,10.30
2023-01-04T16:12:49.835Z,10.30
2023-01-04T16:15:20.899Z,10.30
2023-01-04T16:17:48.249Z,10.30
2023-01-04T16:20:17.102Z,10.30
2023-01-04T16:22:43.921Z,10.30
2023-01-04T16:25:12.219Z,10.30
2023-01-04T16:27:39.640Z,10.30
2023-01-04T16:30:09.296Z,10.30
2023-01-04T16:32:36.587Z,10.30
2023-01-04T16:35:03.724Z,10.30
2023-01-04T16:37:30.772Z,10.30
2023-01-04T16:40:06.428Z,10.30
2023-01-04T16:42:34.402Z,10.20
2023-01-04T16:45:01.153Z,10.20
2023-01-04T16:47:27.891Z,10.20
2023-01-04T16:49:54.787Z,10.20
2023-01-04T16:52:21.696Z,10.20
2023-01-04T16:54:48.878Z,10.20
2023-01-04T16:57:15.695Z,10.30
2023-01-04T16:59:42.519Z,10.20
2023-01-04T17:02:11.856Z,10.20
2023-01-04T17:04:38.836Z,10.20
2023-01-04T17:07:06.337Z,10.20
2023-01-04T17:09:33.506Z,10.20
2023-01-04T17:15:00.808Z,10.20
2023-01-04T17:17:34.513Z,10.20
2023-01-04T17:20:01.233Z,10.20
2023-01-04T17:22:33.910Z,10.20
2023-01-04T17:25:01.045Z,10.10
2023-01-04T17:27:27.757Z,10.10
2023-01-04T17:29:54.617Z,10.00
2023-01-04T17:32:21.427Z,10.00
2023-01-04T17:34:49.563Z,9.90
2023-01-04T17:37:16.250Z,9.90
2023-01-04T17:39:42.997Z,9.80
2023-01-04T17:42:22.969Z,9.80
2023-01-04T17:44:49.746Z,9.80
2023-01-04T17:47:16.484Z,9.80
2023-01-04T17:49:43.188Z,9.70
2023-01-04T17:52:12.647Z,9.70
2023-01-04T17:54:50.904Z,9.70
2023-01-04T17:57:26.709Z,9.70
2023-01-04T17:59:53.408Z,9.70
2023-01-04T18:02:20.274Z,9.70
2023-01-04T18:04:47.021Z,9.70
2023-01-04T18:07:13.885Z,9.80
2023-01-04T18:09:40.632Z,9.70
2023-01-04T18:12:07.517Z,9.70
2023-01-04T18:14:34.229Z,9.80
2023-01-04T18:17:01.083Z,9.80
2023-01-04T18:19:30.006Z,9.80
2023-01-04T18:21:57.422Z,9.80
2023-01-04T18:24:35.982Z,9.80
2023-01-04T18:29:51.810Z,9.80
2023-01-04T18:32:18.811Z,9.80
2023-01-04T18:34:45.775Z,9.70
2023-01-04T18:37:13.612Z,9.70
2023-01-04T18:40:02.757Z,9.70
2023-01-04T18:42:30.131Z,9.70
2023-01-04T18:44:57.179Z,9.70
2023-01-04T18:47:23.926Z,9.70
2023-01-04T18:49:50.751Z,9.70
2023-01-04T18:52:17.826Z,9.70
2023-01-04T18:54:45.339Z,9.70
2023-01-04T18:57:12.212Z,9.70
2023-01-04T18:59:39.291Z,9.70
2023-01-04T19:02:06.213Z,9.70
2023-01-04T19:04:34.615Z,9.70
2023-01-04T19:07:01.644Z,9.70
2023-01-04T19:09:28.407Z,9.70
2023-01-04T19:11:55.103Z,9.70
2023-01-04T19:14:22.027Z,9.70
2023-01-04T19:16:48.902Z,9.70
2023-01-04T19:19:16.059Z,9.70
2023-01-04T19:21:42.774Z,9.70
2023-01-04T19:24:09.453Z,9.70
2023-01-04T19:26:36.209Z,9.70
2023-01-04T19:29:04.679Z,9.70
2023-01-04T19:31:31.449Z,9.70
2023-01-04T19:33:58.151Z,9.70
2023-01-04T19:36:24.942Z,9.60
2023-01-04T19:38:51.639Z,9.60
2023-01-04T19:41:26.513Z,9.60
2023-01-04T19:44:02.095Z,9.60
2023-01-04T19:46:28.997Z,9.60
2023-01-04T19:48:55.956Z,9.60
2023-01-04T19:51:23.049Z,9.60
2023-01-04T19:53:51.461Z,9.60
2023-01-04T19:56:18.209Z,9.60
2023-01-04T19:58:44.939Z,9.60
2023-01-04T20:01:16.512Z,9.60
2023-01-04T20:03:43.856Z,9.60
2023-01-04T20:06:11.412Z,9.60
2023-01-04T20:08:38.999Z,9.60
2023-01-04T20:11:05.870Z,9.60
2023-01-04T20:13:36.087Z,9.60
2023-01-04T20:16:06.273Z,9.60
2023-01-04T20:18:33.871Z,9.60
2023-01-04T20:21:00.891Z,9.60
2023-01-04T20:23:27.669Z,9.60
2023-01-04T20:25:55.037Z,9.60
2023-01-04T20:28:23.907Z,9.60
2023-01-04T20:31:02.139Z,9.60
2023-01-04T20:33:30.384Z,9.60
2023-01-04T20:35:57.208Z,9.60
2023-01-04T20:38:24.093Z,9.60
2023-01-04T20:40:50.843Z,9.60
2023-01-04T20:43:32.807Z,9.60
2023-01-04T20:46:01.341Z,9.60
2023-01-04T20:48:28.880Z,9.60
2023-01-04T20:50:56.169Z,9.60
2023-01-04T20:53:23.170Z,9.60
2023-01-04T20:56:13.633Z,9.50
2023-01-04T20:58:44.455Z,9.50
2023-01-04T21:02:03.404Z,9.50
2023-01-04T21:08:14.896Z,9.60
2023-01-04T21:10:46.161Z,9.60
2023-01-04T21:13:13.052Z,9.60
2023-01-04T21:15:39.992Z,9.60
2023-01-04T21:18:11.205Z,9.60
2023-01-04T21:20:47.747Z,9.60
2023-01-04T21:23:16.391Z,9.60
2023-01-04T21:25:43.959Z,9.60
2023-01-04T21:28:12.206Z,9.60
2023-01-04T21:30:40.481Z,9.60
2023-01-04T21:33:07.763Z,9.70
2023-01-04T21:35:34.559Z,9.70
2023-01-04T21:38:01.781Z,9.70
2023-01-04T21:40:28.669Z,9.70
2023-01-04T21:42:56.891Z,9.70
2023-01-04T21:45:24.421Z,9.70
2023-01-04T21:47:51.219Z,9.60
2023-01-04T21:50:18.563Z,9.60
2023-01-04T21:52:45.720Z,9.50
2023-01-04T21:55:12.592Z,9.50
2023-01-04T21:57:39.412Z,9.50
2023-01-04T22:00:07.570Z,9.50
2023-01-04T22:02:34.854Z,9.50
2023-01-04T22:05:01.795Z,9.50
2023-01-04T22:07:28.614Z,9.50
2023-01-04T22:09:57.667Z,9.50
2023-01-04T22:12:24.634Z,9.60
2023-01-04T22:14:51.925Z,9.60
2023-01-04T22:17:18.928Z,9.60
2023-01-04T22:19:45.798Z,9.60
2023-01-04T22:22:12.619Z,9.60
2023-01-04T22:24:39.488Z,9.50
2023-01-04T22:27:06.275Z,9.50
2023-01-04T22:29:33.115Z,9.50
2023-01-04T22:31:59.879Z,9.50
2023-01-04T22:34:28.112Z,9.50
2023-01-04T22:36:55.070Z,9.50
2023-01-04T22:39:22.007Z,9.50
2023-01-04T22:41:48.810Z,9.50
2023-01-04T22:44:15.614Z,9.50
2023-01-04T22:46:42.430Z,9.50
2023-01-04T22:49:09.689Z,9.40
2023-01-04T22:51:36.497Z,9.40
2023-01-04T22:54:05.502Z,9.40
2023-01-04T22:56:32.306Z,9.40
2023-01-04T22:58:59.203Z,9.40
2023-01-04T23:01:29.174Z,9.50
2023-01-04T23:03:57.177Z,9.40
2023-01-04T23:06:25.476Z,9.40
2023-01-04T23:09:04.263Z,9.40
2023-01-04T23:11:32.950Z,9.40
2023-01-04T23:14:02.181Z,9.40
2023-01-04T23:16:32.742Z,9.40
2023-01-04T23:19:01.644Z,9.40
2023-01-04T23:21:28.963Z,9.40
2023-01-04T23:24:43.649Z,9.40
2023-01-04T23:30:25.359Z,9.40
2023-01-04T23:36:25.981Z,9.30
2023-01-04T23:38:54.746Z,9.30
2023-01-04T23:41:21.850Z,9.20
2023-01-04T23:43:48.677Z,9.10
2023-01-04T23:47:30.480Z,9.10
